LEGR/GRX METAR and TAF weather

Enter ICAO airport designator
Station Type Date Time Source
LEGR METAR 2021/07/30 22:30 UTC NOAA

LEGR 302230Z AUTO VRB02KT CAVOK 25/06 Q1016


Station Type Date Time Source
LEGR Decoded METAR 2021/07/30 22:30 UTC NOAA

Granada / Aeropuerto, Spain (LEGR) 37-11N 003-47W 570M
Jul 30, 2021 - 06:30 PM EDT / 2021.07.30 2230 UTC
Wind: Variable at 2 MPH (2 KT):0
Visibility: greater than 7 mile(s):0
Temperature: 77 F (25 C)
Dew Point: 42 F (6 C)
Relative Humidity: 29%
Pressure (altimeter): 30.00 in. Hg (1016 hPa)
ob: LEGR 302230Z AUTO VRB02KT CAVOK 25/06 Q1016
cycle: 22

Station Type Date Time Source
LEGR TAF 2021/07/30 18:27 UTC NOAA

TAF LEGR 301700Z 3018/3118 28010KT CAVOK TX34/3018Z TN18/3105Z
TEMPO 3102/3106 VRB02KT PROB40
TEMPO 3114/3117 27015G25KT

Example: see airport list